Arcadia, IN

8:22 PM EDT on August 28, 2014 (GMT -0400)
Eagle Creek | Change Station
CLOSE
Current Station
Airport
Location: Eagle Creek,
Elevation: 820 ft
Nearby Weather Stations

Elev 820 ft 39.83 °N, 86.30 °W | Updated 29 minutes ago

Clear
Clear
78 °F
Feels Like 78 °F
N
8
Wind Variable Wind from East

Today
High -- | Low -- °F
--% Chance of Precip.
Yesterday
High -- | Low -- °F
Precip. -- in
7:07 AM 8:21 PM
Waxing Crescent, 10% visible
Pressure 30.02 in
Visibility 10.0 miles
Clouds Clear
Dew Point 63 °F
Humidity 60%
Rainfall 0.00 in
Snow Depth Not available.
UV 0 out of 12
Pollen 10.40 out of 12
Ozone Good
PM2.5 Good
Flu Activity Not available.
METAR KEYE 282353Z AUTO 10007KT 10SM CLR 26/17 A3003 RMK AO2 SLP164 T02560172 10283 20256 55000

More Conditions Fewer Conditions

Pressure 30.02 in
Visibility 10.0 miles
Clouds Clear
Dew Point 63 °F
Humidity 60%
Rainfall 0.00 in
Snow Depth Not available.
UV 0 out of 12
Pollen 10.40 out of 12
Ozone Good
PM2.5 Good
Flu Activity Not available.
METAR KEYE 282353Z AUTO 10007KT 10SM CLR 26/17 A3003 RMK AO2 SLP164 T02560172 10283 20256 55000

More Conditions Fewer Conditions

10-Day Weather Forecast

Almanac

Astronomy

Aug. 28, 2014 Rise Set
Actual Time 7:07 AM EDT 8:21 PM EDT
Civil Twilight 6:39 AM EDT 8:49 PM EDT
Nautical Twilight 6:06 AM EDT 9:23 PM EDT
Astronomical Twilight 5:30 AM EDT 9:58 PM EDT
Moon 9:59 AM EDT (8/28) 9:45 PM EDT (8/28)
Length of Visible Light 14h 10m
Length of Day
13h 14m
Tomorrow will be 2m 31s shorter.
Waxing Crescent, 10% of the Moon is Illuminated
Today
Waxing Crescent
Sep 2
First Quarter
Sep 8
Full
Sep 15
Last Quarter
Sep 24
New

Today's Extremes

State Highs State Lows

Community

WunderPhotos

Upload Photos

1,748,105 photos uploaded!

Nearby

Air Quality

  Air Quality AQ Index Pollutant
Yesterday Good
PM10
Yesterday Good
OZONE
Current Good
OZONE
Current Good
PM2.5
Thursday Moderate
PM2.5
Thursday Good
OZONE
Friday Moderate
PM2.5
Friday Moderate
OZONE

Snow Depth

Station Depth Elevation
No new snow has been reported.

Earthquake Activity

City Distance Mag. Time & Date
No recent earthquake activity has been reported nearby.
Minimum magnitude displayed is 2.5.

Coastal Water Temperatures

Place Temperature
No Stations Reporting

Nearby Weather Stations